Time;durP1;ratioP1;P1;durP2;ratioP2;P2;SDS_P1;SDS_P2;PMS_P1;PMS_P2;Temp;Humidity;BMP_temperature;BMP_pressure;BME280_temperature;BME280_humidity;BME280_pressure;Samples;Min_cycle;Max_cycle;Signal;HPM_P1;HPM_P2
2023/05/07 00:02:04;;;;;;;;;;;;;;;21.90;49.47;99776.81;7313781;19;130110;-39
2023/05/07 00:04:35;;;;;;;;;;;;;;;21.71;49.81;99793.31;7318402;19;129515;-39
2023/05/07 00:07:00;;;;;;;;;;;;;;;21.79;50.35;99783.03;7318608;19;128917;-42
2023/05/07 00:09:26;;;;;;;;;;;;;;;22.15;53.08;99793.78;7315696;19;129580;-42
2023/05/07 00:11:51;;;;;;;;;;;;;;;22.20;53.19;99778.47;7318810;19;129637;-40
2023/05/07 00:14:16;;;;;;;;;;;;;;;22.42;52.94;99799.13;7315019;19;129296;-41
2023/05/07 00:16:41;;;;;;;;;;;;;;;22.47;52.77;99797.75;7316121;19;128993;-40
2023/05/07 00:19:07;;;;;;;;;;;;;;;22.54;52.93;99795.44;7317483;19;129454;-43
2023/05/07 00:21:32;;;;;;;;;;;;;;;22.54;52.83;99788.41;7317753;19;129252;-40
2023/05/07 00:23:57;;;;;;;;;;;;;;;22.58;52.72;99783.69;7316565;19;130337;-40
2023/05/07 00:26:22;;;;;;;;;;;;;;;22.55;52.98;99784.81;7317210;19;129244;-40
2023/05/07 00:28:48;;;;;;;;;;;;;;;22.61;52.68;99788.66;7317171;19;128887;-38
2023/05/07 00:31:13;;;;;;;;;;;;;;;22.60;52.68;99792.22;7316696;19;129645;-37
2023/05/07 00:33:38;;;;;;;;;;;;;;;22.63;52.95;99794.56;7315429;19;130317;-40
2023/05/07 00:36:03;;;;;;;;;;;;;;;22.65;52.81;99803.97;7316484;19;128680;-40
2023/05/07 00:38:29;;;;;;;;;;;;;;;22.63;53.47;99781.47;7319461;19;129340;-42
2023/05/07 00:40:54;;;;;;;;;;;;;;;22.67;53.55;99791.53;7316626;19;129062;-39
2023/05/07 00:43:19;;;;;;;;;;;;;;;;;;7316902;19;128929;-39
2023/05/07 00:45:45;;;;;;;;;;;;;;;22.67;53.14;99790.72;7315456;19;129603;-42
2023/05/07 00:48:10;;;;;;;;;;;;;;;21.90;49.59;99795.13;7318541;19;129479;-40
2023/05/07 00:50:35;;;;;;;;;;;;;;;21.72;49.49;99804.59;7318394;19;129158;-42
2023/05/07 00:53:01;;;;;;;;;;;;;;;21.87;52.53;99793.63;7316927;19;130308;-40
2023/05/07 00:55:26;;;;;;;;;;;;;;;22.17;53.18;99789.22;7317411;19;129406;-41
2023/05/07 00:57:52;;;;;;;;;;;;;;;22.32;52.80;99793.91;7318171;19;129394;-41
2023/05/07 01:00:17;;;;;;;;;;;;;;;22.41;53.28;99781.78;7315240;19;130123;-40
2023/05/07 01:02:43;;;;;;;;;;;;;;;22.45;53.08;99778.72;7316062;19;131395;-42
2023/05/07 01:05:13;;;;;;;;;;;;;;;22.50;52.92;99787.00;7313044;19;130498;-39
2023/05/07 01:07:42;;;;;;;;;;;;;;;22.51;53.12;99786.00;7318705;19;129277;-42
2023/05/07 01:10:08;;;;;;;;;;;;;;;22.55;53.06;99789.22;7317958;19;129181;-43
2023/05/07 01:12:34;;;;;;;;;;;;;;;22.58;53.28;99786.31;7317026;19;129630;-40
2023/05/07 01:14:59;;;;;;;;;;;;;;;22.60;52.53;99785.22;7315386;19;129445;-41
2023/05/07 01:17:24;;;;;;;;;;;;;;;22.61;53.13;99772.94;7316553;19;128985;-42
2023/05/07 01:19:50;;;;;;;;;;;;;;;22.62;52.98;99785.06;7316855;19;129811;-40
2023/05/07 01:22:18;;;;;;;;;;;;;;;22.62;52.89;99787.69;7317720;19;130913;-41
2023/05/07 01:24:43;;;;;;;;;;;;;;;22.66;53.11;99796.94;7316919;19;129199;-41
2023/05/07 01:27:09;;;;;;;;;;;;;;;22.66;53.06;99796.94;7317007;19;128963;-40
2023/05/07 01:29:34;;;;;;;;;;;;;;;22.66;53.09;99797.72;7315198;19;130148;-37
2023/05/07 01:32:00;;;;;;;;;;;;;;;22.65;52.38;99797.88;7313195;19;132312;-41
2023/05/07 01:34:26;;;;;;;;;;;;;;;21.78;50.11;99804.91;7318965;19;128897;-39
2023/05/07 01:36:53;;;;;;;;;;;;;;;21.70;49.41;99794.25;7319619;19;128898;-42
2023/05/07 01:39:18;;;;;;;;;;;;;;;22.00;52.59;99801.22;7316492;19;129133;-40
2023/05/07 01:41:43;;;;;;;;;;;;;;;22.17;53.08;99792.69;7315642;19;129828;-41
2023/05/07 01:44:09;;;;;;;;;;;;;;;22.31;52.77;99794.06;7313888;19;129449;-43
2023/05/07 01:46:35;;;;;;;;;;;;;;;22.44;52.71;99797.19;7315083;19;129414;-39
2023/05/07 01:49:00;;;;;;;;;;;;;;;22.49;52.76;99805.47;7315173;19;129416;-38
2023/05/07 01:51:26;;;;;;;;;;;;;;;22.51;53.42;99803.53;7316105;19;128685;-39
2023/05/07 01:53:53;;;;;;;;;;;;;;;22.55;52.90;99804.94;7315799;19;129302;-42
2023/05/07 01:56:18;;;;;;;;;;;;;;;22.56;52.74;99796.94;7315028;19;128830;-43
2023/05/07 01:58:44;;;;;;;;;;;;;;;22.57;53.05;99798.59;7316469;19;129576;-41
2023/05/07 02:01:09;;;;;;;;;;;;;;;22.47;53.01;99770.72;7315402;19;131038;-40
2023/05/07 02:03:35;;;;;;;;;;;;;;;22.61;52.61;99799.94;7314016;19;128930;-42
2023/05/07 02:06:01;;;;;;;;;;;;;;;22.63;53.49;99807.66;7315469;19;128812;-42
2023/05/07 02:08:26;;;;;;;;;;;;;;;22.59;53.33;99796.63;7314932;19;130316;-42
2023/05/07 02:10:51;;;;;;;;;;;;;;;22.50;53.30;99780.91;7312984;19;129866;-42
2023/05/07 02:13:17;;;;;;;;;;;;;;;22.61;53.26;99793.91;7312758;19;129285;-42
2023/05/07 02:15:42;;;;;;;;;;;;;;;22.65;53.34;99810.97;7311302;19;129185;-39
2023/05/07 02:18:08;;;;;;;;;;;;;;;21.79;50.42;99817.03;7314954;19;129459;-41
2023/05/07 02:20:34;;;;;;;;;;;;;;;21.63;49.61;99815.88;7315439;19;130289;-38
2023/05/07 02:23:00;;;;;;;;;;;;;;;21.88;52.37;99816.22;7313811;19;128861;-39
2023/05/07 02:25:25;;;;;;;;;;;;;;;22.17;52.97;99815.41;7313795;19;128628;-41
2023/05/07 02:27:50;;;;;;;;;;;;;;;22.31;53.19;99818.47;7315670;19;128994;-39
2023/05/07 02:30:15;;;;;;;;;;;;;;;22.41;53.49;99828.94;7313269;19;129607;-42
2023/05/07 02:32:41;;;;;;;;;;;;;;;22.45;53.42;99825.03;7313862;19;130281;-41
2023/05/07 02:35:06;;;;;;;;;;;;;;;22.49;53.33;99826.44;7314324;19;128939;-40
2023/05/07 02:37:31;;;;;;;;;;;;;;;22.51;53.34;99822.69;7314120;19;129371;-42
2023/05/07 02:39:57;;;;;;;;;;;;;;;22.56;53.22;99822.31;7313305;19;129156;-40
2023/05/07 02:42:22;;;;;;;;;;;;;;;22.58;53.20;99825.59;7313133;19;128932;-42
2023/05/07 02:44:47;;;;;;;;;;;;;;;22.59;53.22;99822.84;7312995;19;129821;-39
2023/05/07 02:47:13;;;;;;;;;;;;;;;22.58;52.73;99823.00;7313210;19;129338;-40
2023/05/07 02:49:38;;;;;;;;;;;;;;;22.62;53.14;99821.75;7312723;19;129626;-42
2023/05/07 02:52:04;;;;;;;;;;;;;;;22.63;53.26;99815.53;7313121;19;129599;-39
2023/05/07 02:54:29;;;;;;;;;;;;;;;22.50;53.16;99799.25;7314233;19;130202;-42
2023/05/07 02:56:55;;;;;;;;;;;;;;;22.64;53.44;99819.81;7312886;19;129966;-43
2023/05/07 02:59:20;;;;;;;;;;;;;;;22.65;53.66;99821.47;7313068;19;130419;-39
2023/05/07 03:01:45;;;;;;;;;;;;;;;22.12;50.28;99817.63;7313779;19;129594;-40
2023/05/07 03:04:10;;;;;;;;;;;;;;;21.71;49.82;99823.88;7314407;19;129481;-41
2023/05/07 03:06:36;;;;;;;;;;;;;;;21.68;49.53;99824.97;7313646;19;129306;-37
2023/05/07 03:09:01;;;;;;;;;;;;;;;22.06;53.16;99821.63;7311274;19;129104;-41
2023/05/07 03:11:27;;;;;;;;;;;;;;;22.26;53.28;99825.06;7314928;19;129019;-39
2023/05/07 03:13:52;;;;;;;;;;;;;;;22.38;52.92;99819.53;7312038;19;129410;-39
2023/05/07 03:16:17;;;;;;;;;;;;;;;22.42;52.78;99820.09;7312743;19;131089;-42
2023/05/07 03:18:42;;;;;;;;;;;;;;;22.46;52.78;99817.03;7312895;19;129236;-41
2023/05/07 03:21:07;;;;;;;;;;;;;;;22.52;53.26;99820.91;7315149;19;129799;-40
2023/05/07 03:23:33;;;;;;;;;;;;;;;22.52;52.94;99820.91;7309477;19;130905;-40
2023/05/07 03:25:58;;;;;;;;;;;;;;;22.41;53.37;99802.72;7311224;19;129760;-41
2023/05/07 03:28:23;;;;;;;;;;;;;;;22.59;52.77;99814.19;7311077;19;130422;-39
2023/05/07 03:30:48;;;;;;;;;;;;;;;22.60;53.21;99814.03;7311828;19;128550;-42
2023/05/07 03:33:14;;;;;;;;;;;;;;;22.62;52.71;99829.63;7309092;19;128861;-40
2023/05/07 03:35:39;;;;;;;;;;;;;;;22.60;53.10;99834.16;7310100;19;130154;-39
2023/05/07 03:38:04;;;;;;;;;;;;;;;22.60;53.25;99832.38;7318501;19;129210;-42
2023/05/07 03:40:29;;;;;;;;;;;;;;;22.63;53.43;99829.47;7319619;19;128950;-39
2023/05/07 03:42:55;;;;;;;;;;;;;;;22.65;52.84;99832.78;7316797;19;129233;-41
2023/05/07 03:45:20;;;;;;;;;;;;;;;;;;7315353;19;129105;-42
2023/05/07 03:47:45;;;;;;;;;;;;;;;21.81;50.24;99830.84;7319424;19;131738;-41
2023/05/07 03:50:11;;;;;;;;;;;;;;;21.61;50.07;99834.34;7316234;19;129561;-42
2023/05/07 03:52:36;;;;;;;;;;;;;;;21.81;52.65;99830.84;7317548;19;128966;-41
2023/05/07 03:55:01;;;;;;;;;;;;;;;22.19;53.29;99839.66;7319285;19;128797;-41
2023/05/07 03:57:26;;;;;;;;;;;;;;;22.34;53.19;99833.06;7318459;19;130316;-39
2023/05/07 03:59:51;;;;;;;;;;;;;;;22.40;53.26;99842.97;7318283;19;128872;-42
2023/05/07 04:02:17;;;;;;;;;;;;;;;22.44;52.71;99844.34;7316234;19;129532;-39
2023/05/07 04:04:42;;;;;;;;;;;;;;;22.39;53.47;99830.84;7315935;19;129402;-39
2023/05/07 04:07:07;;;;;;;;;;;;;;;22.53;53.14;99843.53;7317793;19;130603;-35
2023/05/07 04:09:33;;;;;;;;;;;;;;;22.56;52.78;99840.66;7315885;19;129069;-39
2023/05/07 04:11:58;;;;;;;;;;;;;;;22.44;52.88;99812.91;7315338;19;129374;-39
2023/05/07 04:14:23;;;;;;;;;;;;;;;22.55;53.56;99836.38;7315276;19;129064;-40
2023/05/07 04:16:48;;;;;;;;;;;;;;;22.58;53.28;99836.09;7316604;19;129361;-37
2023/05/07 04:19:13;;;;;;;;;;;;;;;22.63;53.48;99847.81;7316879;19;129777;-35
2023/05/07 04:21:39;;;;;;;;;;;;;;;22.63;53.47;99844.34;7315764;19;129751;-38
2023/05/07 04:24:05;;;;;;;;;;;;;;;22.60;53.21;99839.41;7306715;19;131161;-46
2023/05/07 04:26:31;;;;;;;;;;;;;;;22.62;53.57;99854.03;7307477;19;131506;-34
2023/05/07 04:28:58;;;;;;;;;;;;;;;22.63;53.25;99854.84;7313992;19;129332;-32
2023/05/07 04:31:24;;;;;;;;;;;;;;;21.88;49.52;99849.44;7317989;19;129193;-35
2023/05/07 04:33:50;;;;;;;;;;;;;;;21.67;49.83;99859.94;7314458;19;130583;-30
2023/05/07 04:36:15;;;;;;;;;;;;;;;21.59;50.19;99872.88;7316734;19;130461;-39
2023/05/07 04:38:41;;;;;;;;;;;;;;;22.08;53.21;99863.38;7316257;19;129466;-34
2023/05/07 04:41:06;;;;;;;;;;;;;;;22.25;53.35;99875.78;7317618;19;129374;-36
2023/05/07 04:43:32;;;;;;;;;;;;;;;22.34;53.39;99872.34;7314626;19;129475;-40
2023/05/07 04:45:57;;;;;;;;;;;;;;;22.42;52.73;99870.69;7315375;19;129320;-37
2023/05/07 04:48:22;;;;;;;;;;;;;;;22.44;53.09;99876.63;7311590;19;128930;-37
2023/05/07 04:50:49;;;;;;;;;;;;;;;22.49;53.12;99884.06;7317093;19;129007;-33
2023/05/07 04:53:14;;;;;;;;;;;;;;;22.42;52.88;99868.09;7314149;19;130658;-40
2023/05/07 04:55:39;;;;;;;;;;;;;;;22.53;53.37;99885.47;7314991;19;130586;-33
2023/05/07 04:58:05;;;;;;;;;;;;;;;22.55;52.84;99878.31;7316110;19;129126;-38
2023/05/07 05:00:31;;;;;;;;;;;;;;;22.60;52.79;99891.81;7316402;19;129502;-36
2023/05/07 05:02:56;;;;;;;;;;;;;;;22.52;53.01;99868.06;7315583;19;130284;-43
2023/05/07 05:05:22;;;;;;;;;;;;;;;22.62;53.01;99895.97;7315064;19;129535;-31
2023/05/07 05:07:47;;;;;;;;;;;;;;;22.58;52.73;99896.34;7311579;19;129862;-34
2023/05/07 05:10:12;;;;;;;;;;;;;;;22.50;53.60;99898.81;7312757;19;129035;-32
2023/05/07 05:12:38;;;;;;;;;;;;;;;22.40;53.88;99883.09;7313348;19;129462;-33
2023/05/07 05:15:03;;;;;;;;;;;;;;;22.04;50.72;99898.63;7309744;19;131295;-39
2023/05/07 05:17:28;;;;;;;;;;;;;;;21.74;50.87;99882.00;7310342;19;130089;-34
2023/05/07 05:19:54;;;;;;;;;;;;;;;21.88;50.20;99897.34;7315082;19;130597;-35
2023/05/07 05:22:19;;;;;;;;;;;;;;;22.08;53.03;99884.31;7314307;19;129562;-34
2023/05/07 05:24:44;;;;;;;;;;;;;;;22.26;53.63;99898.41;7314550;19;130593;-39
2023/05/07 05:27:10;;;;;;;;;;;;;;;22.34;53.67;99895.94;7312689;19;130486;-34
2023/05/07 05:29:35;;;;;;;;;;;;;;;22.41;53.92;99897.84;7313220;19;128927;-40
2023/05/07 05:32:00;;;;;;;;;;;;;;;22.51;53.54;99895.25;7310809;19;132835;-34
2023/05/07 05:34:25;;;;;;;;;;;;;;;22.57;53.23;99903.41;7313819;19;130405;-34
2023/05/07 05:36:51;;;;;;;;;;;;;;;22.57;53.73;99899.97;7313481;19;128990;-35
2023/05/07 05:39:16;;;;;;;;;;;;;;;22.61;53.67;99910.03;7314087;19;130373;-37
2023/05/07 05:41:42;;;;;;;;;;;;;;;22.60;53.36;99908.38;7314238;19;130139;-34
2023/05/07 05:44:07;;;;;;;;;;;;;;;22.62;53.67;99916.09;7314801;19;129331;-32
2023/05/07 05:46:32;;;;;;;;;;;;;;;22.63;53.47;99912.50;7312759;19;129309;-35
2023/05/07 05:48:58;;;;;;;;;;;;;;;22.59;53.37;99911.13;7313788;19;129349;-35
2023/05/07 05:51:23;;;;;;;;;;;;;;;22.64;53.67;99919.41;7314738;19;130491;-30
2023/05/07 05:53:48;;;;;;;;;;;;;;;22.65;53.29;99921.06;7312908;19;129355;-34
2023/05/07 05:56:13;;;;;;;;;;;;;;;22.66;53.14;99922.72;7309053;19;131482;-34
2023/05/07 05:58:39;;;;;;;;;;;;;;;22.66;53.19;99917.50;7310091;19;129082;-36
2023/05/07 06:01:05;;;;;;;;;;;;;;;22.27;50.79;99926.25;7311849;19;129291;-33
2023/05/07 06:03:30;;;;;;;;;;;;;;;22.01;49.91;99935.56;7311063;19;129292;-37
2023/05/07 06:05:55;;;;;;;;;;;;;;;21.93;49.93;99939.66;7314222;19;129053;-39
2023/05/07 06:08:21;;;;;;;;;;;;;;;22.02;52.73;99919.72;7311160;19;129765;-34
2023/05/07 06:10:46;;;;;;;;;;;;;;;22.26;52.87;99940.31;7309150;19;130240;-29
2023/05/07 06:13:11;;;;;;;;;;;;;;;22.35;53.08;99948.19;7307691;19;130741;-42
2023/05/07 06:15:36;;;;;;;;;;;;;;;22.44;53.13;99954.41;7313323;19;128997;-35
2023/05/07 06:18:02;;;;;;;;;;;;;;;22.48;53.52;99950.53;7313954;19;129299;-41
2023/05/07 06:20:27;;;;;;;;;;;;;;;22.55;52.82;99951.66;7311675;19;130354;-34
2023/05/07 06:22:52;;;;;;;;;;;;;;;22.56;53.49;99948.91;7311255;19;130341;-34
2023/05/07 06:25:17;;;;;;;;;;;;;;;22.57;53.26;99961.06;7314038;19;129415;-35
2023/05/07 06:27:43;;;;;;;;;;;;;;;22.56;53.03;99954.16;7308522;19;130118;-32
2023/05/07 06:30:08;;;;;;;;;;;;;;;22.57;53.35;99960.22;7309799;19;130208;-39
2023/05/07 06:32:33;;;;;;;;;;;;;;;22.59;53.02;99956.50;7310398;19;131081;-34
2023/05/07 06:34:58;;;;;;;;;;;;;;;22.61;52.89;99946.72;7312421;19;129154;-35
2023/05/07 06:37:24;;;;;;;;;;;;;;;22.49;53.82;99931.25;7311701;19;129763;-39
2023/05/07 06:39:49;;;;;;;;;;;;;;;22.61;53.67;99948.53;7312238;19;129360;-34
2023/05/07 06:42:14;;;;;;;;;;;;;;;22.53;53.59;99938.72;7309274;19;130547;-39
2023/05/07 06:44:40;;;;;;;;;;;;;;;22.61;53.68;99959.81;7309112;19;129140;-31
2023/05/07 06:47:05;;;;;;;;;;;;;;;21.98;50.10;99956.78;7309163;19;129214;-34
2023/05/07 06:49:31;;;;;;;;;;;;;;;21.79;49.95;99968.84;7305642;19;130589;-35
2023/05/07 06:51:56;;;;;;;;;;;;;;;21.83;50.59;99974.66;7308702;19;130985;-36
2023/05/07 06:54:22;;;;;;;;;;;;;;;22.16;53.54;99983.97;7308377;19;130176;-30
2023/05/07 06:56:47;;;;;;;;;;;;;;;22.21;53.62;99963.47;7311430;19;128749;-36
2023/05/07 06:59:12;;;;;;;;;;;;;;;22.40;52.88;99973.97;7313312;19;129272;-30
2023/05/07 07:01:38;;;;;;;;;;;;;;;22.46;53.25;99974.25;7312763;19;130309;-33
2023/05/07 07:04:03;;;;;;;;;;;;;;;22.50;53.63;99974.81;7312056;19;130089;-38
2023/05/07 07:06:29;;;;;;;;;;;;;;;22.42;53.36;99967.63;7310453;19;128987;-35
2023/05/07 07:08:54;;;;;;;;;;;;;;;22.55;53.49;99978.72;7311096;19;130254;-35
2023/05/07 07:11:20;;;;;;;;;;;;;;;22.56;53.33;99977.75;7312834;19;129115;-37
2023/05/07 07:13:45;;;;;;;;;;;;;;;22.57;53.09;99970.72;7316882;19;129202;-39
2023/05/07 07:16:11;;;;;;;;;;;;;;;22.44;53.12;99960.47;7315813;19;129696;-39
2023/05/07 07:18:36;;;;;;;;;;;;;;;22.58;53.59;99975.81;7317739;19;129651;-36
2023/05/07 07:21:02;;;;;;;;;;;;;;;22.45;54.06;99975.22;7317849;19;131379;-40
2023/05/07 07:23:27;;;;;;;;;;;;;;;22.47;54.47;99980.31;7313422;19;130192;-31
2023/05/07 07:25:52;;;;;;;;;;;;;;;22.44;54.33;99991.06;7312968;19;130257;-39
2023/05/07 07:28:17;;;;;;;;;;;;;;;22.51;53.81;99992.19;7315167;19;130229;-33
2023/05/07 07:30:43;;;;;;;;;;;;;;;21.93;50.81;99983.38;7316711;19;131252;-38
2023/05/07 07:33:08;;;;;;;;;;;;;;;22.06;50.21;99986.59;7317136;19;131117;-40
2023/05/07 07:35:34;;;;;;;;;;;;;;;22.17;51.59;99989.09;7317894;19;129137;-31
2023/05/07 07:37:59;;;;;;;;;;;;;;;22.15;52.71;99969.25;7314256;19;129425;-32
2023/05/07 07:40:25;;;;;;;;;;;;;;;22.34;53.35;99992.84;7315358;19;129397;-43
2023/05/07 07:42:50;;;;;;;;;;;;;;;22.42;52.92;99993.00;7317153;19;129023;-34
2023/05/07 07:45:16;;;;;;;;;;;;;;;22.47;53.22;99991.63;7316330;19;130847;-41
2023/05/07 07:47:41;;;;;;;;;;;;;;;22.50;53.28;99990.53;7311564;19;130121;-42
2023/05/07 07:50:07;;;;;;;;;;;;;;;22.56;53.42;100001.31;7315588;19;129661;-38
2023/05/07 07:52:32;;;;;;;;;;;;;;;22.55;53.47;100011.94;7310807;19;129633;-31
2023/05/07 07:54:57;;;;;;;;;;;;;;;22.52;53.57;100004.31;7315300;19;129279;-33
2023/05/07 07:57:23;;;;;;;;;;;;;;;22.55;53.59;99998.84;7318633;19;130327;-35
2023/05/07 07:59:48;;;;;;;;;;;;;;;22.56;52.89;100006.56;7317692;19;131450;-36
2023/05/07 08:02:13;;;;;;;;;;;;;;;22.60;53.42;100002.72;7316382;19;129122;-39
2023/05/07 08:04:38;;;;;;;;;;;;;;;22.61;53.15;100008.81;7317163;19;129503;-37
2023/05/07 08:07:03;;;;;;;;;;;;;;;22.62;53.56;100010.44;7315583;19;130311;-38
2023/05/07 08:09:29;;;;;;;;;;;;;;;22.59;53.35;100013.34;7316566;19;130471;-37
2023/05/07 08:11:54;;;;;;;;;;;;;;;22.50;52.95;100001.00;7315253;19;129729;-34
2023/05/07 08:14:20;;;;;;;;;;;;;;;22.57;53.38;100017.88;7317597;19;129108;-39
2023/05/07 08:16:45;;;;;;;;;;;;;;;22.00;49.53;100015.09;7313087;19;129910;-32
2023/05/07 08:19:10;;;;;;;;;;;;;;;21.84;49.56;100019.00;7313299;19;129612;-36
2023/05/07 08:21:38;;;;;;;;;;;;;;;22.04;52.33;99995.50;7316120;19;129025;-37
2023/05/07 08:24:03;;;;;;;;;;;;;;;22.29;53.64;100019.44;7310421;19;130027;-40
2023/05/07 08:26:29;;;;;;;;;;;;;;;22.42;52.82;100019.19;7315529;19;130252;-33
2023/05/07 08:28:54;;;;;;;;;;;;;;;22.49;53.46;100025.56;7315309;19;130907;-31
2023/05/07 08:31:19;;;;;;;;;;;;;;;22.51;53.41;100028.88;7316520;19;129642;-32
2023/05/07 08:33:44;;;;;;;;;;;;;;;22.42;53.10;100006.09;7313997;19;129296;-42
2023/05/07 08:36:10;;;;;;;;;;;;;;;22.56;53.36;100031.97;7314044;19;129777;-36
2023/05/07 08:38:35;;;;;;;;;;;;;;;22.57;53.28;100030.97;7317481;19;129565;-35
2023/05/07 08:41:00;;;;;;;;;;;;;;;22.57;53.59;100025.75;7316980;19;129421;-35
2023/05/07 08:43:26;;;;;;;;;;;;;;;22.56;53.20;100027.53;7314762;19;128975;-32
2023/05/07 08:45:53;;;;;;;;;;;;;;;22.60;53.32;100033.31;7317342;19;129258;-38
2023/05/07 08:48:20;;;;;;;;;;;;;;;22.59;53.62;100023.81;7316786;19;129626;-36
2023/05/07 08:50:46;;;;;;;;;;;;;;;22.57;53.43;100028.38;7314670;19;129356;-34
2023/05/07 08:53:12;;;;;;;;;;;;;;;22.60;53.24;100028.09;7314717;19;129398;-37
2023/05/07 08:55:37;;;;;;;;;;;;;;;22.60;53.10;100028.09;7315955;19;130737;-44
2023/05/07 08:58:03;;;;;;;;;;;;;;;22.19;50.54;100039.53;7315430;19;131468;-37
2023/05/07 09:00:28;;;;;;;;;;;;;;;21.87;49.55;100046.69;7315421;19;130027;-38
2023/05/07 09:02:53;;;;;;;;;;;;;;;21.87;49.04;100050.16;7314466;19;129430;-37
2023/05/07 09:05:19;;;;;;;;;;;;;;;22.15;52.85;100048.63;7315382;19;129043;-35
2023/05/07 09:07:45;;;;;;;;;;;;;;;22.16;53.13;100024.09;7315396;19;129711;-32
2023/05/07 09:10:11;;;;;;;;;;;;;;;22.41;53.36;100046.38;7314798;19;129044;-33
2023/05/07 09:12:36;;;;;;;;;;;;;;;22.49;52.85;100046.53;7309357;19;131114;-34
2023/05/07 09:15:02;;;;;;;;;;;;;;;22.42;53.04;100029.69;7313113;19;129981;-32
2023/05/07 09:17:28;;;;;;;;;;;;;;;22.54;53.22;100057.47;7313673;19;131154;-36
2023/05/07 09:19:53;;;;;;;;;;;;;;;22.58;53.12;100056.22;7314392;19;130387;-37
2023/05/07 09:22:18;;;;;;;;;;;;;;;22.60;53.13;100067.41;7311178;19;129490;-33
2023/05/07 09:24:50;;;;;;;;;;;;;;;22.49;53.52;100036.03;7314330;19;130318;-32
2023/05/07 09:27:16;;;;;;;;;;;;;;;22.60;52.84;100064.78;7311105;19;130431;-31
2023/05/07 09:29:41;;;;;;;;;;;;;;;22.61;53.49;100067.25;7312919;19;129061;-37
2023/05/07 09:32:07;;;;;;;;;;;;;;;22.56;53.29;100058.16;7294402;19;130218;-40
2023/05/07 09:34:32;;;;;;;;;;;;;;;22.61;53.36;100062.03;7278837;19;131499;-45
2023/05/07 09:37:01;;;;;;;;;;;;;;;22.66;53.20;100064.25;7283058;19;131031;-34
2023/05/07 09:39:38;;;;;;;;;;;;;;;22.66;53.48;100069.50;7313693;19;128966;-39
2023/05/07 09:42:03;;;;;;;;;;;;;;;22.67;53.56;100064.13;7311369;19;129961;-37
2023/05/07 09:44:29;;;;;;;;;;;;;;;21.82;50.24;100062.81;7314956;19;129439;-32
2023/05/07 09:46:55;;;;;;;;;;;;;;;21.78;50.06;100063.19;7312744;19;130286;-35
2023/05/07 09:49:21;;;;;;;;;;;;;;;22.06;52.41;100066.91;7311971;19;129620;-37
2023/05/07 09:51:50;;;;;;;;;;;;;;;22.24;52.94;100073.19;7310945;19;129187;-34
2023/05/07 09:54:16;;;;;;;;;;;;;;;22.36;53.28;100064.28;7314622;19;129572;-33
2023/05/07 09:56:42;;;;;;;;;;;;;;;22.42;52.94;100076.84;7310748;19;129307;-40
2023/05/07 09:59:10;;;;;;;;;;;;;;;22.48;53.35;100071.03;7313906;19;131405;-34
2023/05/07 10:01:36;;;;;;;;;;;;;;;22.50;53.05;100069.13;7314702;19;129464;-34
2023/05/07 10:04:03;;;;;;;;;;;;;;;22.55;53.26;100069.59;7312413;19;129463;-38
2023/05/07 10:06:30;;;;;;;;;;;;;;;22.54;53.07;100067.94;7313826;19;129216;-34
2023/05/07 10:08:56;;;;;;;;;;;;;;;22.56;52.81;100068.66;7314209;19;129212;-32
2023/05/07 10:11:21;;;;;;;;;;;;;;;22.57;53.30;100059.81;7311831;19;129397;-35
2023/05/07 10:13:47;;;;;;;;;;;;;;;22.57;52.86;100065.06;7310442;19;129402;-29
2023/05/07 10:16:13;;;;;;;;;;;;;;;22.56;53.05;100068.66;7313030;19;129446;-33
2023/05/07 10:18:40;;;;;;;;;;;;;;;22.58;53.75;100069.31;7311373;19;130117;-40
2023/05/07 10:21:10;;;;;;;;;;;;;;;22.57;52.94;100070.28;7314253;19;128885;-31
2023/05/07 10:23:36;;;;;;;;;;;;;;;22.60;53.08;100064.78;7309636;19;129300;-33
2023/05/07 10:26:03;;;;;;;;;;;;;;;22.59;53.57;100073.63;7311266;19;129618;-33
2023/05/07 10:28:30;;;;;;;;;;;;;;;21.71;50.04;100060.25;7313261;19;129212;-38
2023/05/07 10:31:01;;;;;;;;;;;;;;;21.66;50.30;100066.81;7310235;19;129205;-44
2023/05/07 10:33:27;;;;;;;;;;;;;;;22.02;52.43;100065.50;7307453;19;131075;-30
2023/05/07 10:35:55;;;;;;;;;;;;;;;22.23;52.90;100066.31;7311810;19;129088;-32
2023/05/07 10:38:20;;;;;;;;;;;;;;;22.35;53.03;100057.38;7313560;19;128978;-34
2023/05/07 10:40:46;;;;;;;;;;;;;;;22.24;53.59;100034.75;7314764;19;129206;-35
2023/05/07 10:43:11;;;;;;;;;;;;;;;22.42;52.92;100058.50;7310382;19;130224;-44
2023/05/07 10:45:37;;;;;;;;;;;;;;;22.44;53.20;100059.19;7312252;19;130663;-33
2023/05/07 10:48:09;;;;;;;;;;;;;;;22.42;53.57;100050.63;7312659;19;129543;-35
2023/05/07 10:50:35;;;;;;;;;;;;;;;22.47;52.84;100058.94;7310706;19;129071;-37
2023/05/07 10:53:18;;;;;;;;;;;;;;;22.47;53.64;100058.94;7309234;19;130213;-33
2023/05/07 10:55:44;;;;;;;;;;;;;;;22.46;53.06;100058.09;7312040;19;129155;-39
2023/05/07 10:58:22;;;;;;;;;;;;;;;22.49;53.34;100057.00;7304919;19;129234;-32
2023/05/07 11:00:48;;;;;;;;;;;;;;;22.52;53.44;100061.97;7311616;19;130129;-31
2023/05/07 11:03:14;;;;;;;;;;;;;;;22.42;53.84;100034.91;7306363;19;129471;-37
2023/05/07 11:05:40;;;;;;;;;;;;;;;22.54;53.08;100054.84;7309378;19;130374;-33
2023/05/07 11:08:06;;;;;;;;;;;;;;;22.56;53.32;100053.72;7310756;19;129219;-35
2023/05/07 11:10:49;;;;;;;;;;;;;;;22.41;53.19;100030.66;7309831;19;129483;-33
2023/05/07 11:13:15;;;;;;;;;;;;;;;21.75;50.59;100055.56;7309305;19;130510;-37
2023/05/07 11:15:43;;;;;;;;;;;;;;;21.76;49.29;100050.25;7310361;19;131205;-38
2023/05/07 11:18:08;;;;;;;;;;;;;;;22.00;53.20;100046.50;7312554;19;129713;-34
2023/05/07 11:20:50;;;;;;;;;;;;;;;22.07;53.23;100031.91;7312695;19;129633;-36
2023/05/07 11:23:33;;;;;;;;;;;;;;;22.31;53.27;100045.50;7308121;19;131569;-37
2023/05/07 11:26:03;;;;;;;;;;;;;;;22.37;53.24;100052.81;7309652;19;130822;-36
2023/05/07 11:28:29;;;;;;;;;;;;;;;22.22;53.19;100028.78;7311757;19;129850;-32
2023/05/07 11:30:56;;;;;;;;;;;;;;;22.40;53.10;100048.16;7311292;19;129327;-32
2023/05/07 11:33:21;;;;;;;;;;;;;;;22.39;53.75;100046.50;7307911;19;130159;-34
2023/05/07 11:35:47;;;;;;;;;;;;;;;22.42;53.67;100035.75;7311649;19;131078;-35
2023/05/07 11:38:12;;;;;;;;;;;;;;;22.41;53.03;100034.06;7311586;19;129422;-34
2023/05/07 11:40:54;;;;;;;;;;;;;;;22.45;53.78;100037.25;7310788;19;129376;-40
2023/05/07 11:43:20;;;;;;;;;;;;;;;22.47;53.43;100046.66;7306935;19;132330;-35
2023/05/07 11:45:46;;;;;;;;;;;;;;;22.48;53.30;100047.47;7311218;19;130322;-33
2023/05/07 11:48:12;;;;;;;;;;;;;;;22.47;53.78;100049.28;7310536;19;128980;-33
2023/05/07 11:50:50;;;;;;;;;;;;;;;22.48;53.84;100050.09;7308563;19;129055;-35
2023/05/07 11:53:16;;;;;;;;;;;;;;;22.50;53.66;100042.94;7308245;19;131333;-31
2023/05/07 11:55:42;;;;;;;;;;;;;;;22.36;51.51;100045.94;7309919;19;130288;-38
2023/05/07 11:58:08;;;;;;;;;;;;;;;21.75;49.79;100059.00;7314807;19;129041;-34
2023/05/07 12:00:34;;;;;;;;;;;;;;;21.65;49.67;100058.13;7318723;19;129095;-33
2023/05/07 12:03:03;;;;;;;;;;;;;;;22.01;52.78;100064.69;7316333;19;129777;-35
2023/05/07 12:05:28;;;;;;;;;;;;;;;22.20;52.93;100056.06;7312150;19;131530;-36
2023/05/07 12:07:55;;;;;;;;;;;;;;;22.29;53.61;100065.75;7315929;19;128879;-34
2023/05/07 12:10:21;;;;;;;;;;;;;;;22.36;53.10;100062.47;7315263;19;128884;-34
2023/05/07 12:12:46;;;;;;;;;;;;;;;22.36;53.75;100056.41;7315842;19;129087;-32
2023/05/07 12:15:15;;;;;;;;;;;;;;;22.37;53.55;100063.31;7315824;19;130838;-35
2023/05/07 12:17:40;;;;;;;;;;;;;;;22.40;53.08;100055.16;7310650;19;130659;-33
2023/05/07 12:20:06;;;;;;;;;;;;;;;22.42;53.39;100061.13;7312054;19;129311;-42
2023/05/07 12:22:32;;;;;;;;;;;;;;;22.41;53.45;100059.47;7311959;19;130879;-41
2023/05/07 12:24:58;;;;;;;;;;;;;;;22.42;53.45;100053.25;7312371;19;131091;-38
2023/05/07 12:27:23;;;;;;;;;;;;;;;22.45;53.48;100072.16;7315462;19;129216;-39